ACA540 LFPO-LFMN
Flight info
| Callsign | ACA540 |
|---|---|
| Flight time | N/A |
| Altitude | 35000 |
| Route | LATRA DCT LAMUT DCT UTUVA DCT LERGA DCT LIQID DCT LATAM DCT TUNUR DCT NISAR |
| Aircraft | B738/M-SDE2E3FGHIRWXY/LB1 |
Departure
| Time | N/A |
|---|---|
| Airport | Paris-Orly Airport (LFPO) |
Arrival
| Time | 2026-05-06 00:48 |
|---|---|
| Airport | Nice-Côte d'Azur Airport (LFMN) |
| Time | Latitude | Longitude | Altitude | Speed | Heading |
|---|---|---|---|---|---|
| 2026-05-05 23:57 | 46.90568 | 3.07228 | 32348 ft | 437 kts | 166° |
| 2026-05-05 23:57 | 46.87635 | 3.08425 | 32519 ft | 438 kts | 166° |
| 2026-05-05 23:57 | 46.84708 | 3.09622 | 32757 ft | 437 kts | 166° |
| 2026-05-05 23:57 | 46.81787 | 3.10816 | 33017 ft | 436 kts | 166° |
| 2026-05-05 23:58 | 46.78865 | 3.12009 | 33205 ft | 436 kts | 166° |
| 2026-05-05 23:58 | 46.75947 | 3.13199 | 33391 ft | 436 kts | 166° |
| 2026-05-05 23:58 | 46.73028 | 3.14388 | 33599 ft | 435 kts | 166° |
| 2026-05-05 23:58 | 46.70154 | 3.15557 | 33817 ft | 434 kts | 166° |
| 2026-05-05 23:59 | 46.67240 | 3.16740 | 33981 ft | 434 kts | 166° |
| 2026-05-05 23:59 | 46.64327 | 3.17922 | 34097 ft | 435 kts | 166° |
| 2026-05-05 23:59 | 46.61405 | 3.19106 | 34217 ft | 436 kts | 166° |
| 2026-05-05 23:59 | 46.58489 | 3.20287 | 34376 ft | 435 kts | 166° |
| 2026-05-06 00:00 | 46.55572 | 3.21466 | 34525 ft | 435 kts | 166° |
| 2026-05-06 00:00 | 46.52652 | 3.22646 | 34642 ft | 435 kts | 166° |
| 2026-05-06 00:00 | 46.49736 | 3.23822 | 34777 ft | 435 kts | 166° |
| 2026-05-06 00:00 | 46.46824 | 3.24996 | 34867 ft | 434 kts | 166° |
| 2026-05-06 00:01 | 46.40979 | 3.27347 | 34892 ft | 437 kts | 167° |
| 2026-05-06 00:01 | 46.35125 | 3.29697 | 34891 ft | 437 kts | 167° |
| 2026-05-06 00:02 | 46.29265 | 3.32044 | 34891 ft | 437 kts | 167° |
| 2026-05-06 00:02 | 46.23400 | 3.34389 | 34892 ft | 437 kts | 167° |
| 2026-05-06 00:03 | 46.17539 | 3.36726 | 34893 ft | 437 kts | 167° |
| 2026-05-06 00:03 | 46.11689 | 3.39054 | 34891 ft | 436 kts | 167° |
| 2026-05-06 00:04 | 46.05846 | 3.41374 | 34894 ft | 435 kts | 167° |
| 2026-05-06 00:04 | 46.00015 | 3.43684 | 34889 ft | 434 kts | 167° |
| 2026-05-06 00:05 | 45.91286 | 3.47134 | 34891 ft | 433 kts | 167° |
| 2026-05-06 00:06 | 45.85477 | 3.49429 | 34890 ft | 433 kts | 167° |
| 2026-05-06 00:06 | 45.79707 | 3.51885 | 34887 ft | 432 kts | 166° |
| 2026-05-06 00:07 | 45.73958 | 3.54397 | 34889 ft | 432 kts | 166° |
| 2026-05-06 00:07 | 45.68211 | 3.56886 | 34892 ft | 431 kts | 166° |
| 2026-05-06 00:08 | 45.62465 | 3.59354 | 34888 ft | 431 kts | 166° |
| 2026-05-06 00:08 | 45.56723 | 3.61811 | 34895 ft | 431 kts | 166° |
| 2026-05-06 00:09 | 45.50972 | 3.64267 | 34898 ft | 431 kts | 166° |
| 2026-05-06 00:09 | 45.45220 | 3.66717 | 34895 ft | 432 kts | 166° |
| 2026-05-06 00:10 | 45.39501 | 3.69150 | 34892 ft | 432 kts | 166° |
| 2026-05-06 00:10 | 45.33746 | 3.71594 | 34891 ft | 431 kts | 167° |
| 2026-05-06 00:11 | 45.28068 | 3.74382 | 34882 ft | 437 kts | 154° |
| 2026-05-06 00:11 | 45.25550 | 3.76826 | 34905 ft | 442 kts | 143° |
| 2026-05-06 00:11 | 45.23373 | 3.79941 | 34891 ft | 449 kts | 131° |
| 2026-05-06 00:12 | 45.19972 | 3.87450 | 34891 ft | 453 kts | 126° |
| 2026-05-06 00:12 | 45.16648 | 3.95036 | 34899 ft | 453 kts | 127° |
| 2026-05-06 00:13 | 45.13233 | 4.02549 | 34892 ft | 454 kts | 128° |
| 2026-05-06 00:13 | 45.10372 | 4.08766 | 34885 ft | 453 kts | 128° |
| 2026-05-06 00:14 | 45.06934 | 4.16234 | 34891 ft | 453 kts | 128° |
| 2026-05-06 00:14 | 45.03476 | 4.23668 | 34891 ft | 451 kts | 131° |
| 2026-05-06 00:15 | 44.99393 | 4.30280 | 34891 ft | 445 kts | 138° |
| 2026-05-06 00:15 | 44.95152 | 4.36660 | 34885 ft | 446 kts | 138° |
| 2026-05-06 00:16 | 44.90927 | 4.43060 | 34888 ft | 446 kts | 138° |
| 2026-05-06 00:16 | 44.86719 | 4.49486 | 34880 ft | 445 kts | 138° |
| 2026-05-06 00:17 | 44.82528 | 4.55887 | 34882 ft | 444 kts | 138° |
| 2026-05-06 00:17 | 44.78337 | 4.62271 | 34881 ft | 443 kts | 138° |
| 2026-05-06 00:18 | 44.74157 | 4.68622 | 34882 ft | 442 kts | 139° |
| 2026-05-06 00:18 | 44.69973 | 4.74966 | 34881 ft | 442 kts | 139° |
| 2026-05-06 00:19 | 44.65786 | 4.81301 | 34888 ft | 442 kts | 139° |
| 2026-05-06 00:19 | 44.61633 | 4.87684 | 34892 ft | 444 kts | 137° |
| 2026-05-06 00:20 | 44.57569 | 4.94220 | 34889 ft | 445 kts | 137° |
| 2026-05-06 00:20 | 44.55531 | 4.97497 | 34645 ft | 450 kts | 137° |
| 2026-05-06 00:20 | 44.53481 | 5.00770 | 34142 ft | 453 kts | 138° |
| 2026-05-06 00:20 | 44.51399 | 5.04085 | 33485 ft | 453 kts | 138° |
| 2026-05-06 00:21 | 44.49320 | 5.07386 | 32864 ft | 451 kts | 138° |
| 2026-05-06 00:21 | 44.47253 | 5.10676 | 32323 ft | 448 kts | 138° |
| 2026-05-06 00:21 | 44.45207 | 5.13940 | 31801 ft | 444 kts | 138° |
| 2026-05-06 00:21 | 44.43182 | 5.17172 | 31385 ft | 439 kts | 138° |
| 2026-05-06 00:22 | 44.41177 | 5.20365 | 30931 ft | 435 kts | 138° |
| 2026-05-06 00:22 | 44.39190 | 5.23525 | 30501 ft | 430 kts | 138° |
| 2026-05-06 00:22 | 44.37211 | 5.26630 | 30083 ft | 424 kts | 141° |
| 2026-05-06 00:22 | 44.35041 | 5.29273 | 29795 ft | 407 kts | 148° |
| 2026-05-06 00:23 | 44.32804 | 5.31665 | 29331 ft | 402 kts | 149° |
| 2026-05-06 00:23 | 44.30589 | 5.33990 | 28908 ft | 396 kts | 149° |
| 2026-05-06 00:23 | 44.28409 | 5.36295 | 28479 ft | 391 kts | 149° |
| 2026-05-06 00:23 | 44.26268 | 5.38587 | 28084 ft | 386 kts | 148° |
| 2026-05-06 00:24 | 44.24151 | 5.40872 | 27621 ft | 383 kts | 148° |
| 2026-05-06 00:24 | 44.22059 | 5.43142 | 27225 ft | 379 kts | 147° |
| 2026-05-06 00:24 | 44.19985 | 5.45395 | 26811 ft | 376 kts | 147° |
| 2026-05-06 00:24 | 44.17927 | 5.47629 | 26377 ft | 374 kts | 147° |
| 2026-05-06 00:25 | 44.15884 | 5.49845 | 25963 ft | 371 kts | 147° |
| 2026-05-06 00:25 | 44.13860 | 5.52036 | 25553 ft | 368 kts | 147° |
| 2026-05-06 00:25 | 44.11844 | 5.54217 | 25142 ft | 366 kts | 146° |
| 2026-05-06 00:25 | 44.09840 | 5.56385 | 24748 ft | 364 kts | 146° |
| 2026-05-06 00:26 | 44.07846 | 5.58539 | 24344 ft | 362 kts | 146° |
| 2026-05-06 00:26 | 44.05861 | 5.60683 | 23955 ft | 360 kts | 146° |
| 2026-05-06 00:26 | 44.03885 | 5.62814 | 23569 ft | 359 kts | 146° |
| 2026-05-06 00:26 | 44.01912 | 5.64942 | 23132 ft | 358 kts | 146° |
| 2026-05-06 00:27 | 43.99951 | 5.67055 | 22688 ft | 356 kts | 146° |
| 2026-05-06 00:27 | 43.97998 | 5.69157 | 22289 ft | 354 kts | 146° |
| 2026-05-06 00:27 | 43.96059 | 5.71242 | 21925 ft | 352 kts | 145° |
| 2026-05-06 00:27 | 43.94119 | 5.73326 | 21547 ft | 355 kts | 146° |
| 2026-05-06 00:28 | 43.92187 | 5.75400 | 21094 ft | 356 kts | 146° |
| 2026-05-06 00:28 | 43.90206 | 5.77528 | 20763 ft | 355 kts | 147° |
| 2026-05-06 00:28 | 43.88278 | 5.79595 | 20360 ft | 355 kts | 147° |
| 2026-05-06 00:28 | 43.86295 | 5.81716 | 19925 ft | 355 kts | 147° |
| 2026-05-06 00:29 | 43.84373 | 5.83772 | 19587 ft | 353 kts | 147° |
| 2026-05-06 00:29 | 43.82402 | 5.85875 | 19228 ft | 353 kts | 147° |
| 2026-05-06 00:29 | 43.80456 | 5.87950 | 18875 ft | 353 kts | 147° |
| 2026-05-06 00:29 | 43.78513 | 5.90020 | 18519 ft | 352 kts | 147° |
| 2026-05-06 00:30 | 43.76572 | 5.92086 | 18152 ft | 352 kts | 148° |
| 2026-05-06 00:30 | 43.74633 | 5.94149 | 17754 ft | 351 kts | 148° |
| 2026-05-06 00:30 | 43.72726 | 5.96178 | 17371 ft | 350 kts | 147° |
| 2026-05-06 00:30 | 43.70774 | 5.98251 | 17000 ft | 348 kts | 147° |
| 2026-05-06 00:31 | 43.68889 | 6.00254 | 16640 ft | 345 kts | 148° |
| 2026-05-06 00:31 | 43.66998 | 6.02262 | 16289 ft | 341 kts | 148° |
| 2026-05-06 00:31 | 43.65134 | 6.04239 | 15935 ft | 337 kts | 148° |
| 2026-05-06 00:31 | 43.63278 | 6.06204 | 15598 ft | 333 kts | 147° |
| 2026-05-06 00:32 | 43.61447 | 6.08141 | 15269 ft | 330 kts | 148° |
| 2026-05-06 00:32 | 43.59769 | 6.10314 | 14913 ft | 336 kts | 132° |
| 2026-05-06 00:32 | 43.58652 | 6.13174 | 14604 ft | 342 kts | 117° |
| 2026-05-06 00:32 | 43.57798 | 6.16250 | 14268 ft | 344 kts | 116° |
| 2026-05-06 00:33 | 43.56972 | 6.19361 | 13920 ft | 349 kts | 115° |
| 2026-05-06 00:33 | 43.56135 | 6.22512 | 13518 ft | 349 kts | 116° |
| 2026-05-06 00:33 | 43.55294 | 6.25641 | 13135 ft | 348 kts | 115° |
| 2026-05-06 00:33 | 43.54449 | 6.28752 | 12759 ft | 345 kts | 116° |
| 2026-05-06 00:34 | 43.53603 | 6.31835 | 12404 ft | 342 kts | 116° |
| 2026-05-06 00:34 | 43.52764 | 6.34878 | 12054 ft | 336 kts | 116° |
| 2026-05-06 00:34 | 43.51945 | 6.37844 | 11708 ft | 326 kts | 116° |
| 2026-05-06 00:34 | 43.51149 | 6.40719 | 11384 ft | 317 kts | 116° |
| 2026-05-06 00:35 | 43.50303 | 6.43455 | 11047 ft | 303 kts | 127° |
| 2026-05-06 00:35 | 43.48990 | 6.45599 | 10798 ft | 286 kts | 139° |
| 2026-05-06 00:35 | 43.47611 | 6.47539 | 10492 ft | 281 kts | 139° |
| 2026-05-06 00:35 | 43.46260 | 6.49445 | 10184 ft | 276 kts | 139° |
| 2026-05-06 00:36 | 43.44917 | 6.51355 | 9742 ft | 277 kts | 139° |
| 2026-05-06 00:36 | 43.43585 | 6.53262 | 9382 ft | 275 kts | 138° |
| 2026-05-06 00:36 | 43.42275 | 6.55147 | 9078 ft | 270 kts | 138° |
| 2026-05-06 00:36 | 43.40984 | 6.57004 | 8772 ft | 266 kts | 138° |
| 2026-05-06 00:37 | 43.39745 | 6.58854 | 8465 ft | 262 kts | 130° |
| 2026-05-06 00:37 | 43.39061 | 6.61133 | 8210 ft | 264 kts | 101° |
| 2026-05-06 00:37 | 43.39162 | 6.63620 | 7959 ft | 261 kts | 78° |
| 2026-05-06 00:37 | 43.39701 | 6.65967 | 7739 ft | 253 kts | 74° |
| 2026-05-06 00:38 | 43.40268 | 6.68205 | 7477 ft | 243 kts | 74° |
| 2026-05-06 00:38 | 43.40815 | 6.70350 | 7240 ft | 232 kts | 74° |
| 2026-05-06 00:38 | 43.41332 | 6.72394 | 7016 ft | 220 kts | 74° |
| 2026-05-06 00:38 | 43.41817 | 6.74327 | 6828 ft | 206 kts | 75° |
| 2026-05-06 00:39 | 43.42285 | 6.76213 | 6809 ft | 219 kts | 75° |
| 2026-05-06 00:39 | 43.42783 | 6.78239 | 6887 ft | 221 kts | 75° |
| 2026-05-06 00:39 | 43.43251 | 6.80125 | 6925 ft | 195 kts | 75° |
| 2026-05-06 00:39 | 43.43659 | 6.81773 | 6844 ft | 173 kts | 75° |
| 2026-05-06 00:40 | 43.44038 | 6.83319 | 6643 ft | 170 kts | 76° |
| 2026-05-06 00:40 | 43.44413 | 6.84861 | 6440 ft | 170 kts | 76° |
| 2026-05-06 00:40 | 43.44790 | 6.86401 | 6236 ft | 169 kts | 76° |
| 2026-05-06 00:40 | 43.45162 | 6.87925 | 6020 ft | 168 kts | 76° |
| 2026-05-06 00:41 | 43.45536 | 6.89466 | 5793 ft | 169 kts | 76° |
| 2026-05-06 00:41 | 43.45905 | 6.90990 | 5562 ft | 168 kts | 76° |
| 2026-05-06 00:41 | 43.46266 | 6.92481 | 5421 ft | 167 kts | 76° |
| 2026-05-06 00:41 | 43.46636 | 6.93995 | 5203 ft | 166 kts | 76° |
| 2026-05-06 00:42 | 43.47198 | 6.95372 | 4988 ft | 167 kts | 49° |
| 2026-05-06 00:42 | 43.48011 | 6.96531 | 4780 ft | 169 kts | 49° |
| 2026-05-06 00:42 | 43.48811 | 6.97705 | 4560 ft | 167 kts | 49° |
| 2026-05-06 00:42 | 43.49614 | 6.98850 | 4337 ft | 165 kts | 48° |
| 2026-05-06 00:43 | 43.50420 | 6.99981 | 4111 ft | 166 kts | 48° |
| 2026-05-06 00:43 | 43.51225 | 7.01103 | 3894 ft | 163 kts | 47° |
| 2026-05-06 00:43 | 43.52023 | 7.02208 | 3673 ft | 162 kts | 47° |
| 2026-05-06 00:43 | 43.52804 | 7.03290 | 3472 ft | 161 kts | 47° |
| 2026-05-06 00:44 | 43.53595 | 7.04385 | 3237 ft | 160 kts | 48° |
| 2026-05-06 00:44 | 43.54369 | 7.05457 | 3036 ft | 157 kts | 48° |
| 2026-05-06 00:44 | 43.55142 | 7.06526 | 2836 ft | 157 kts | 48° |
| 2026-05-06 00:44 | 43.55906 | 7.07582 | 2617 ft | 153 kts | 48° |
| 2026-05-06 00:45 | 43.56653 | 7.08617 | 2428 ft | 152 kts | 49° |
| 2026-05-06 00:45 | 43.57400 | 7.09654 | 2222 ft | 154 kts | 47° |
| 2026-05-06 00:45 | 43.58153 | 7.10689 | 2011 ft | 151 kts | 48° |
| 2026-05-06 00:45 | 43.58888 | 7.11706 | 1805 ft | 149 kts | 47° |
| 2026-05-06 00:46 | 43.59614 | 7.12711 | 1594 ft | 146 kts | 46° |
| 2026-05-06 00:46 | 43.60331 | 7.13704 | 1387 ft | 146 kts | 45° |
| 2026-05-06 00:46 | 43.61055 | 7.14704 | 1191 ft | 148 kts | 44° |
| 2026-05-06 00:46 | 43.61785 | 7.15713 | 998 ft | 150 kts | 43° |
| 2026-05-06 00:47 | 43.62514 | 7.16718 | 787 ft | 149 kts | 44° |
| 2026-05-06 00:47 | 43.63249 | 7.17735 | 581 ft | 145 kts | 45° |
| 2026-05-06 00:47 | 43.63949 | 7.18701 | 395 ft | 140 kts | 45° |
| 2026-05-06 00:47 | 43.64623 | 7.19633 | 221 ft | 135 kts | 46° |
| 2026-05-06 00:48 | 43.65274 | 7.20532 | 49 ft | 132 kts | 47° |
| 2026-05-06 00:48 | 43.65875 | 7.21361 | 18 ft | 96 kts | 46° |
| 2026-05-06 00:48 | 43.66198 | 7.21797 | 19 ft | 36 kts | 41° |
| 2026-05-06 00:48 | 43.66285 | 7.21889 | 20 ft | 16 kts | 36° |
| 2026-05-06 00:49 | 43.66434 | 7.22021 | 19 ft | 35 kts | 25° |
| 2026-05-06 00:49 | 43.66601 | 7.21935 | 18 ft | 23 kts | 260° |
| 2026-05-06 00:49 | 43.66578 | 7.21736 | 19 ft | 16 kts | 274° |
| 2026-05-06 00:49 | 43.66614 | 7.21656 | 21 ft | 3 kts | 311° |
| 2026-05-06 00:50 | 43.66616 | 7.21653 | 21 ft | 0 kts | 312° |